sensor_id;sensor_type;location;lat;lon;timestamp;P1;durP1;ratioP1;P2;durP2;ratioP2
51090;SDS011;37136;43.614;3.908;2023-01-28T00:00:08;6.70;;;4.95;;
51090;SDS011;37136;43.614;3.908;2023-01-28T00:02:35;5.90;;;4.43;;
51090;SDS011;37136;43.614;3.908;2023-01-28T00:05:01;8.15;;;5.30;;
51090;SDS011;37136;43.614;3.908;2023-01-28T00:07:27;7.38;;;5.15;;
51090;SDS011;37136;43.614;3.908;2023-01-28T00:09:54;6.32;;;5.03;;
51090;SDS011;37136;43.614;3.908;2023-01-28T00:12:20;7.45;;;5.47;;
51090;SDS011;37136;43.614;3.908;2023-01-28T00:14:46;6.75;;;4.65;;
51090;SDS011;37136;43.614;3.908;2023-01-28T00:17:12;5.93;;;4.60;;
51090;SDS011;37136;43.614;3.908;2023-01-28T00:19:39;8.10;;;5.13;;
51090;SDS011;37136;43.614;3.908;2023-01-28T00:22:05;7.10;;;4.78;;
51090;SDS011;37136;43.614;3.908;2023-01-28T00:24:32;6.75;;;4.57;;
51090;SDS011;37136;43.614;3.908;2023-01-28T00:26:58;7.30;;;5.30;;
51090;SDS011;37136;43.614;3.908;2023-01-28T00:29:24;7.43;;;5.63;;
51090;SDS011;37136;43.614;3.908;2023-01-28T00:31:51;6.82;;;4.75;;
51090;SDS011;37136;43.614;3.908;2023-01-28T00:34:17;7.65;;;5.05;;
51090;SDS011;37136;43.614;3.908;2023-01-28T00:36:44;7.38;;;5.35;;
51090;SDS011;37136;43.614;3.908;2023-01-28T00:39:10;7.55;;;5.10;;
51090;SDS011;37136;43.614;3.908;2023-01-28T00:41:38;7.57;;;5.30;;
51090;SDS011;37136;43.614;3.908;2023-01-28T00:44:04;7.05;;;4.88;;
51090;SDS011;37136;43.614;3.908;2023-01-28T00:46:30;6.10;;;4.70;;
51090;SDS011;37136;43.614;3.908;2023-01-28T00:48:56;5.22;;;4.55;;
51090;SDS011;37136;43.614;3.908;2023-01-28T00:51:23;5.97;;;4.68;;
51090;SDS011;37136;43.614;3.908;2023-01-28T00:53:49;6.38;;;4.40;;
51090;SDS011;37136;43.614;3.908;2023-01-28T00:56:16;7.32;;;5.25;;
51090;SDS011;37136;43.614;3.908;2023-01-28T00:58:43;7.85;;;5.30;;
51090;SDS011;37136;43.614;3.908;2023-01-28T01:01:13;6.85;;;4.75;;
51090;SDS011;37136;43.614;3.908;2023-01-28T01:03:40;6.68;;;4.78;;
51090;SDS011;37136;43.614;3.908;2023-01-28T01:06:06;7.72;;;5.35;;
51090;SDS011;37136;43.614;3.908;2023-01-28T01:08:33;7.15;;;4.53;;
51090;SDS011;37136;43.614;3.908;2023-01-28T01:11:02;6.75;;;4.65;;
51090;SDS011;37136;43.614;3.908;2023-01-28T01:13:29;6.40;;;4.57;;
51090;SDS011;37136;43.614;3.908;2023-01-28T01:16:11;6.32;;;4.53;;
51090;SDS011;37136;43.614;3.908;2023-01-28T01:18:39;6.43;;;4.60;;
51090;SDS011;37136;43.614;3.908;2023-01-28T01:21:07;7.03;;;4.82;;
51090;SDS011;37136;43.614;3.908;2023-01-28T01:23:33;6.97;;;4.95;;
51090;SDS011;37136;43.614;3.908;2023-01-28T01:25:59;7.97;;;5.53;;
51090;SDS011;37136;43.614;3.908;2023-01-28T01:28:26;6.22;;;4.78;;
51090;SDS011;37136;43.614;3.908;2023-01-28T01:30:57;7.13;;;5.00;;
51090;SDS011;37136;43.614;3.908;2023-01-28T01:33:24;5.72;;;4.28;;
51090;SDS011;37136;43.614;3.908;2023-01-28T01:35:53;6.70;;;4.90;;
51090;SDS011;37136;43.614;3.908;2023-01-28T01:38:20;6.47;;;4.75;;
51090;SDS011;37136;43.614;3.908;2023-01-28T01:40:46;6.25;;;4.57;;
51090;SDS011;37136;43.614;3.908;2023-01-28T01:43:16;6.93;;;5.15;;
51090;SDS011;37136;43.614;3.908;2023-01-28T01:45:43;6.53;;;4.72;;
51090;SDS011;37136;43.614;3.908;2023-01-28T01:48:18;6.18;;;4.43;;
51090;SDS011;37136;43.614;3.908;2023-01-28T01:50:55;8.07;;;5.38;;
51090;SDS011;37136;43.614;3.908;2023-01-28T01:53:23;6.95;;;4.72;;
51090;SDS011;37136;43.614;3.908;2023-01-28T01:55:50;6.70;;;4.85;;
51090;SDS011;37136;43.614;3.908;2023-01-28T01:58:18;6.22;;;4.82;;
51090;SDS011;37136;43.614;3.908;2023-01-28T02:00:45;6.45;;;4.88;;
51090;SDS011;37136;43.614;3.908;2023-01-28T02:03:12;7.45;;;5.13;;
51090;SDS011;37136;43.614;3.908;2023-01-28T02:05:38;6.95;;;4.80;;
51090;SDS011;37136;43.614;3.908;2023-01-28T02:08:05;6.53;;;4.38;;
51090;SDS011;37136;43.614;3.908;2023-01-28T02:11:03;6.82;;;4.80;;
51090;SDS011;37136;43.614;3.908;2023-01-28T02:13:36;6.50;;;4.82;;
51090;SDS011;37136;43.614;3.908;2023-01-28T02:16:03;6.88;;;5.00;;
51090;SDS011;37136;43.614;3.908;2023-01-28T02:18:30;6.63;;;5.10;;
51090;SDS011;37136;43.614;3.908;2023-01-28T02:23:43;6.97;;;4.60;;
51090;SDS011;37136;43.614;3.908;2023-01-28T02:36:23;6.05;;;4.80;;
51090;SDS011;37136;43.614;3.908;2023-01-28T02:38:52;6.78;;;4.43;;
51090;SDS011;37136;43.614;3.908;2023-01-28T02:41:36;6.38;;;4.78;;
51090;SDS011;37136;43.614;3.908;2023-01-28T02:44:04;6.30;;;4.63;;
51090;SDS011;37136;43.614;3.908;2023-01-28T02:49:22;7.10;;;4.72;;
51090;SDS011;37136;43.614;3.908;2023-01-28T02:51:52;8.65;;;4.75;;
51090;SDS011;37136;43.614;3.908;2023-01-28T02:57:18;6.35;;;4.40;;
51090;SDS011;37136;43.614;3.908;2023-01-28T03:02:23;6.85;;;4.80;;
51090;SDS011;37136;43.614;3.908;2023-01-28T03:07:39;7.22;;;4.93;;
51090;SDS011;37136;43.614;3.908;2023-01-28T03:10:07;6.75;;;4.70;;
51090;SDS011;37136;43.614;3.908;2023-01-28T03:12:34;6.50;;;4.73;;
51090;SDS011;37136;43.614;3.908;2023-01-28T03:15:28;6.10;;;4.50;;
51090;SDS011;37136;43.614;3.908;2023-01-28T03:18:29;6.65;;;4.68;;
51090;SDS011;37136;43.614;3.908;2023-01-28T03:21:19;5.95;;;4.60;;
51090;SDS011;37136;43.614;3.908;2023-01-28T03:24:08;6.15;;;4.53;;
51090;SDS011;37136;43.614;3.908;2023-01-28T03:27:01;6.38;;;4.65;;
51090;SDS011;37136;43.614;3.908;2023-01-28T03:29:49;6.25;;;4.53;;
51090;SDS011;37136;43.614;3.908;2023-01-28T03:32:34;8.00;;;5.40;;
51090;SDS011;37136;43.614;3.908;2023-01-28T03:35:21;6.85;;;4.70;;
51090;SDS011;37136;43.614;3.908;2023-01-28T03:38:06;7.63;;;4.90;;
51090;SDS011;37136;43.614;3.908;2023-01-28T03:40:55;8.15;;;4.82;;
51090;SDS011;37136;43.614;3.908;2023-01-28T03:43:22;5.57;;;4.20;;
51090;SDS011;37136;43.614;3.908;2023-01-28T03:45:48;7.28;;;5.43;;
51090;SDS011;37136;43.614;3.908;2023-01-28T03:48:17;8.10;;;4.97;;
51090;SDS011;37136;43.614;3.908;2023-01-28T03:50:44;7.55;;;5.03;;
51090;SDS011;37136;43.614;3.908;2023-01-28T03:53:10;8.13;;;4.63;;
51090;SDS011;37136;43.614;3.908;2023-01-28T03:55:37;7.75;;;5.38;;
51090;SDS011;37136;43.614;3.908;2023-01-28T03:58:03;7.10;;;4.63;;
51090;SDS011;37136;43.614;3.908;2023-01-28T04:00:32;9.63;;;4.97;;
51090;SDS011;37136;43.614;3.908;2023-01-28T04:03:02;7.00;;;5.22;;
51090;SDS011;37136;43.614;3.908;2023-01-28T04:05:41;7.70;;;4.68;;
51090;SDS011;37136;43.614;3.908;2023-01-28T04:08:08;6.88;;;4.53;;
51090;SDS011;37136;43.614;3.908;2023-01-28T04:10:34;7.30;;;5.22;;
51090;SDS011;37136;43.614;3.908;2023-01-28T04:13:00;8.35;;;5.63;;
51090;SDS011;37136;43.614;3.908;2023-01-28T04:15:26;6.80;;;4.97;;
51090;SDS011;37136;43.614;3.908;2023-01-28T04:17:52;7.63;;;5.47;;
51090;SDS011;37136;43.614;3.908;2023-01-28T04:20:18;7.05;;;5.20;;
51090;SDS011;37136;43.614;3.908;2023-01-28T04:22:45;6.95;;;4.97;;
51090;SDS011;37136;43.614;3.908;2023-01-28T04:25:11;6.53;;;4.60;;
51090;SDS011;37136;43.614;3.908;2023-01-28T04:27:37;7.90;;;5.78;;
51090;SDS011;37136;43.614;3.908;2023-01-28T04:30:03;8.07;;;5.43;;
51090;SDS011;37136;43.614;3.908;2023-01-28T04:32:29;7.72;;;5.35;;
51090;SDS011;37136;43.614;3.908;2023-01-28T04:34:55;9.70;;;5.65;;
51090;SDS011;37136;43.614;3.908;2023-01-28T04:37:22;7.85;;;5.25;;
51090;SDS011;37136;43.614;3.908;2023-01-28T04:39:48;7.38;;;5.10;;
51090;SDS011;37136;43.614;3.908;2023-01-28T04:42:14;8.45;;;5.75;;
51090;SDS011;37136;43.614;3.908;2023-01-28T04:44:40;8.85;;;5.57;;
51090;SDS011;37136;43.614;3.908;2023-01-28T04:47:06;6.80;;;4.93;;
51090;SDS011;37136;43.614;3.908;2023-01-28T04:49:32;7.38;;;5.32;;
51090;SDS011;37136;43.614;3.908;2023-01-28T04:51:58;10.25;;;5.72;;
51090;SDS011;37136;43.614;3.908;2023-01-28T04:54:25;9.98;;;6.35;;
51090;SDS011;37136;43.614;3.908;2023-01-28T04:56:51;8.23;;;5.85;;
51090;SDS011;37136;43.614;3.908;2023-01-28T04:59:17;7.05;;;5.28;;
51090;SDS011;37136;43.614;3.908;2023-01-28T05:01:44;7.88;;;5.75;;
51090;SDS011;37136;43.614;3.908;2023-01-28T05:04:10;7.40;;;5.20;;
51090;SDS011;37136;43.614;3.908;2023-01-28T05:06:36;9.20;;;5.75;;
51090;SDS011;37136;43.614;3.908;2023-01-28T05:09:02;8.38;;;5.65;;
51090;SDS011;37136;43.614;3.908;2023-01-28T05:11:29;6.32;;;4.80;;
51090;SDS011;37136;43.614;3.908;2023-01-28T05:13:55;7.72;;;5.30;;
51090;SDS011;37136;43.614;3.908;2023-01-28T05:16:21;8.45;;;5.13;;
51090;SDS011;37136;43.614;3.908;2023-01-28T05:18:48;8.18;;;5.63;;
51090;SDS011;37136;43.614;3.908;2023-01-28T05:21:15;7.45;;;5.28;;
51090;SDS011;37136;43.614;3.908;2023-01-28T05:23:42;8.35;;;5.25;;
51090;SDS011;37136;43.614;3.908;2023-01-28T05:26:08;6.70;;;4.65;;
51090;SDS011;37136;43.614;3.908;2023-01-28T05:28:34;8.90;;;5.13;;
51090;SDS011;37136;43.614;3.908;2023-01-28T05:31:04;6.93;;;5.28;;
51090;SDS011;37136;43.614;3.908;2023-01-28T05:33:30;7.55;;;4.72;;
51090;SDS011;37136;43.614;3.908;2023-01-28T05:35:57;7.57;;;4.88;;
51090;SDS011;37136;43.614;3.908;2023-01-28T05:38:23;9.45;;;5.47;;
51090;SDS011;37136;43.614;3.908;2023-01-28T05:40:49;7.53;;;4.85;;
51090;SDS011;37136;43.614;3.908;2023-01-28T05:43:15;7.10;;;5.55;;
51090;SDS011;37136;43.614;3.908;2023-01-28T05:45:41;7.25;;;5.30;;
51090;SDS011;37136;43.614;3.908;2023-01-28T05:48:08;7.05;;;5.30;;
51090;SDS011;37136;43.614;3.908;2023-01-28T05:50:34;9.65;;;5.75;;
51090;SDS011;37136;43.614;3.908;2023-01-28T05:53:00;8.27;;;5.28;;
51090;SDS011;37136;43.614;3.908;2023-01-28T05:55:26;7.25;;;5.35;;
51090;SDS011;37136;43.614;3.908;2023-01-28T05:57:52;10.43;;;5.55;;
51090;SDS011;37136;43.614;3.908;2023-01-28T06:00:18;8.52;;;5.43;;
51090;SDS011;37136;43.614;3.908;2023-01-28T06:02:44;8.10;;;5.47;;
51090;SDS011;37136;43.614;3.908;2023-01-28T06:05:11;8.60;;;5.57;;
51090;SDS011;37136;43.614;3.908;2023-01-28T06:07:37;13.48;;;6.15;;
51090;SDS011;37136;43.614;3.908;2023-01-28T06:10:03;8.40;;;5.18;;
51090;SDS011;37136;43.614;3.908;2023-01-28T06:12:29;7.55;;;5.53;;
51090;SDS011;37136;43.614;3.908;2023-01-28T06:14:55;7.00;;;5.07;;
51090;SDS011;37136;43.614;3.908;2023-01-28T06:17:22;6.30;;;4.88;;
51090;SDS011;37136;43.614;3.908;2023-01-28T06:19:48;5.57;;;4.65;;
51090;SDS011;37136;43.614;3.908;2023-01-28T06:22:14;6.82;;;5.07;;
51090;SDS011;37136;43.614;3.908;2023-01-28T06:24:40;6.75;;;4.80;;
51090;SDS011;37136;43.614;3.908;2023-01-28T06:27:06;6.88;;;5.22;;
51090;SDS011;37136;43.614;3.908;2023-01-28T06:29:32;7.07;;;5.50;;
51090;SDS011;37136;43.614;3.908;2023-01-28T06:31:59;7.80;;;5.65;;
51090;SDS011;37136;43.614;3.908;2023-01-28T06:34:25;7.60;;;5.45;;
51090;SDS011;37136;43.614;3.908;2023-01-28T06:36:52;6.13;;;4.68;;
51090;SDS011;37136;43.614;3.908;2023-01-28T06:39:19;7.68;;;4.88;;
51090;SDS011;37136;43.614;3.908;2023-01-28T06:41:46;6.65;;;4.82;;
51090;SDS011;37136;43.614;3.908;2023-01-28T06:44:15;7.05;;;4.90;;
51090;SDS011;37136;43.614;3.908;2023-01-28T06:46:41;8.00;;;5.25;;
51090;SDS011;37136;43.614;3.908;2023-01-28T06:49:07;7.20;;;4.95;;
51090;SDS011;37136;43.614;3.908;2023-01-28T06:51:34;11.85;;;6.03;;
51090;SDS011;37136;43.614;3.908;2023-01-28T06:54:00;7.63;;;4.82;;
51090;SDS011;37136;43.614;3.908;2023-01-28T06:56:26;18.90;;;5.47;;
51090;SDS011;37136;43.614;3.908;2023-01-28T06:58:52;8.52;;;5.00;;
51090;SDS011;37136;43.614;3.908;2023-01-28T07:01:19;6.72;;;5.20;;
51090;SDS011;37136;43.614;3.908;2023-01-28T07:03:45;7.38;;;5.40;;
51090;SDS011;37136;43.614;3.908;2023-01-28T07:06:11;8.30;;;5.15;;
51090;SDS011;37136;43.614;3.908;2023-01-28T07:08:37;7.57;;;5.07;;
51090;SDS011;37136;43.614;3.908;2023-01-28T07:11:05;7.85;;;5.50;;
51090;SDS011;37136;43.614;3.908;2023-01-28T07:13:31;9.48;;;5.45;;
51090;SDS011;37136;43.614;3.908;2023-01-28T07:15:58;9.90;;;6.40;;
51090;SDS011;37136;43.614;3.908;2023-01-28T07:18:24;11.85;;;6.75;;
51090;SDS011;37136;43.614;3.908;2023-01-28T07:20:51;12.68;;;6.75;;
51090;SDS011;37136;43.614;3.908;2023-01-28T07:23:17;12.85;;;6.50;;
51090;SDS011;37136;43.614;3.908;2023-01-28T07:25:43;11.23;;;6.03;;
51090;SDS011;37136;43.614;3.908;2023-01-28T07:28:09;8.15;;;5.53;;
51090;SDS011;37136;43.614;3.908;2023-01-28T07:30:36;9.15;;;6.43;;
51090;SDS011;37136;43.614;3.908;2023-01-28T07:33:03;8.85;;;5.63;;
51090;SDS011;37136;43.614;3.908;2023-01-28T07:35:30;8.63;;;5.57;;
51090;SDS011;37136;43.614;3.908;2023-01-28T07:37:58;8.65;;;5.35;;
51090;SDS011;37136;43.614;3.908;2023-01-28T07:40:25;9.85;;;5.57;;
51090;SDS011;37136;43.614;3.908;2023-01-28T07:42:51;7.45;;;5.35;;
51090;SDS011;37136;43.614;3.908;2023-01-28T07:45:23;7.88;;;5.40;;
51090;SDS011;37136;43.614;3.908;2023-01-28T07:47:53;7.82;;;5.53;;
51090;SDS011;37136;43.614;3.908;2023-01-28T07:50:20;8.48;;;5.90;;
51090;SDS011;37136;43.614;3.908;2023-01-28T07:52:46;9.60;;;6.35;;
51090;SDS011;37136;43.614;3.908;2023-01-28T07:55:12;8.05;;;5.60;;
51090;SDS011;37136;43.614;3.908;2023-01-28T08:00:14;9.57;;;5.85;;
51090;SDS011;37136;43.614;3.908;2023-01-28T08:02:41;8.45;;;5.85;;
51090;SDS011;37136;43.614;3.908;2023-01-28T08:05:13;9.70;;;5.57;;
51090;SDS011;37136;43.614;3.908;2023-01-28T08:07:39;13.90;;;6.28;;
51090;SDS011;37136;43.614;3.908;2023-01-28T08:10:06;9.48;;;6.13;;
51090;SDS011;37136;43.614;3.908;2023-01-28T08:12:32;10.90;;;6.28;;
51090;SDS011;37136;43.614;3.908;2023-01-28T08:14:58;10.90;;;5.90;;
51090;SDS011;37136;43.614;3.908;2023-01-28T08:17:24;9.88;;;6.00;;
51090;SDS011;37136;43.614;3.908;2023-01-28T08:19:50;12.20;;;6.25;;
51090;SDS011;37136;43.614;3.908;2023-01-28T08:22:16;9.13;;;6.00;;
51090;SDS011;37136;43.614;3.908;2023-01-28T08:24:43;10.00;;;6.18;;
51090;SDS011;37136;43.614;3.908;2023-01-28T08:27:09;10.88;;;5.72;;
51090;SDS011;37136;43.614;3.908;2023-01-28T08:29:35;10.75;;;5.88;;
51090;SDS011;37136;43.614;3.908;2023-01-28T08:32:01;11.52;;;5.63;;
51090;SDS011;37136;43.614;3.908;2023-01-28T08:34:27;9.20;;;6.50;;
51090;SDS011;37136;43.614;3.908;2023-01-28T08:36:53;11.75;;;6.22;;
51090;SDS011;37136;43.614;3.908;2023-01-28T08:39:20;7.97;;;5.47;;
51090;SDS011;37136;43.614;3.908;2023-01-28T08:41:46;8.68;;;5.80;;
51090;SDS011;37136;43.614;3.908;2023-01-28T08:44:12;17.38;;;6.07;;
51090;SDS011;37136;43.614;3.908;2023-01-28T08:46:38;11.15;;;6.28;;
51090;SDS011;37136;43.614;3.908;2023-01-28T08:49:04;9.25;;;6.18;;
51090;SDS011;37136;43.614;3.908;2023-01-28T08:51:30;9.68;;;6.68;;
51090;SDS011;37136;43.614;3.908;2023-01-28T08:53:56;11.75;;;6.85;;
51090;SDS011;37136;43.614;3.908;2023-01-28T08:56:23;10.95;;;7.10;;
51090;SDS011;37136;43.614;3.908;2023-01-28T08:58:49;9.93;;;6.53;;
51090;SDS011;37136;43.614;3.908;2023-01-28T09:01:15;12.95;;;8.00;;
51090;SDS011;37136;43.614;3.908;2023-01-28T09:03:41;13.93;;;8.75;;
51090;SDS011;37136;43.614;3.908;2023-01-28T09:06:07;16.38;;;10.18;;
51090;SDS011;37136;43.614;3.908;2023-01-28T09:08:33;13.90;;;8.48;;
51090;SDS011;37136;43.614;3.908;2023-01-28T09:10:59;12.55;;;8.30;;
51090;SDS011;37136;43.614;3.908;2023-01-28T09:13:26;15.38;;;9.23;;
51090;SDS011;37136;43.614;3.908;2023-01-28T09:15:52;14.07;;;8.68;;
51090;SDS011;37136;43.614;3.908;2023-01-28T09:18:19;13.48;;;8.02;;
51090;SDS011;37136;43.614;3.908;2023-01-28T09:20:45;18.88;;;9.63;;
51090;SDS011;37136;43.614;3.908;2023-01-28T09:23:11;12.93;;;7.78;;
51090;SDS011;37136;43.614;3.908;2023-01-28T09:25:37;12.88;;;8.07;;
51090;SDS011;37136;43.614;3.908;2023-01-28T09:28:04;13.23;;;7.90;;
51090;SDS011;37136;43.614;3.908;2023-01-28T09:30:30;13.20;;;7.93;;
51090;SDS011;37136;43.614;3.908;2023-01-28T09:32:56;14.27;;;8.43;;
51090;SDS011;37136;43.614;3.908;2023-01-28T09:35:22;14.25;;;8.88;;
51090;SDS011;37136;43.614;3.908;2023-01-28T09:37:49;17.77;;;8.68;;
51090;SDS011;37136;43.614;3.908;2023-01-28T09:40:17;15.70;;;8.70;;
51090;SDS011;37136;43.614;3.908;2023-01-28T09:50:07;12.43;;;8.23;;
51090;SDS011;37136;43.614;3.908;2023-01-28T09:52:35;9.85;;;7.15;;
51090;SDS011;37136;43.614;3.908;2023-01-28T09:55:03;10.45;;;7.30;;
51090;SDS011;37136;43.614;3.908;2023-01-28T09:57:36;9.15;;;6.90;;
51090;SDS011;37136;43.614;3.908;2023-01-28T10:00:09;11.10;;;7.50;;
51090;SDS011;37136;43.614;3.908;2023-01-28T10:02:48;11.63;;;6.88;;
51090;SDS011;37136;43.614;3.908;2023-01-28T10:10:14;14.35;;;8.23;;
51090;SDS011;37136;43.614;3.908;2023-01-28T10:15:28;15.90;;;8.23;;
51090;SDS011;37136;43.614;3.908;2023-01-28T10:17:58;13.07;;;7.78;;
51090;SDS011;37136;43.614;3.908;2023-01-28T10:20:27;13.65;;;8.13;;
51090;SDS011;37136;43.614;3.908;2023-01-28T10:22:58;14.85;;;8.27;;
51090;SDS011;37136;43.614;3.908;2023-01-28T10:25:27;15.25;;;7.70;;
51090;SDS011;37136;43.614;3.908;2023-01-28T10:27:54;14.90;;;8.93;;
51090;SDS011;37136;43.614;3.908;2023-01-28T10:30:21;19.20;;;9.60;;
51090;SDS011;37136;43.614;3.908;2023-01-28T10:35:38;22.70;;;10.43;;
51090;SDS011;37136;43.614;3.908;2023-01-28T10:38:05;21.70;;;10.00;;
51090;SDS011;37136;43.614;3.908;2023-01-28T10:40:33;17.27;;;10.20;;
51090;SDS011;37136;43.614;3.908;2023-01-28T10:42:59;20.88;;;10.20;;
51090;SDS011;37136;43.614;3.908;2023-01-28T10:45:26;25.95;;;10.48;;
51090;SDS011;37136;43.614;3.908;2023-01-28T10:50:26;24.25;;;9.98;;
51090;SDS011;37136;43.614;3.908;2023-01-28T10:55:19;15.32;;;8.55;;
51090;SDS011;37136;43.614;3.908;2023-01-28T10:57:45;14.57;;;7.88;;
51090;SDS011;37136;43.614;3.908;2023-01-28T11:02:50;13.77;;;7.05;;
51090;SDS011;37136;43.614;3.908;2023-01-28T11:05:20;12.05;;;7.68;;
51090;SDS011;37136;43.614;3.908;2023-01-28T11:07:46;11.98;;;8.20;;
51090;SDS011;37136;43.614;3.908;2023-01-28T11:10:24;11.73;;;7.95;;
51090;SDS011;37136;43.614;3.908;2023-01-28T11:12:53;11.90;;;7.95;;
51090;SDS011;37136;43.614;3.908;2023-01-28T11:15:20;12.85;;;8.27;;
51090;SDS011;37136;43.614;3.908;2023-01-28T11:17:46;15.55;;;9.25;;
51090;SDS011;37136;43.614;3.908;2023-01-28T11:20:18;16.73;;;8.57;;
51090;SDS011;37136;43.614;3.908;2023-01-28T11:22:45;13.13;;;8.35;;
51090;SDS011;37136;43.614;3.908;2023-01-28T11:25:15;10.32;;;7.28;;
51090;SDS011;37136;43.614;3.908;2023-01-28T11:27:52;11.38;;;8.07;;
51090;SDS011;37136;43.614;3.908;2023-01-28T11:30:31;10.80;;;7.75;;
51090;SDS011;37136;43.614;3.908;2023-01-28T11:33:02;11.85;;;7.13;;
51090;SDS011;37136;43.614;3.908;2023-01-28T11:35:29;12.27;;;8.15;;
51090;SDS011;37136;43.614;3.908;2023-01-28T11:37:57;12.43;;;8.63;;
51090;SDS011;37136;43.614;3.908;2023-01-28T11:40:23;11.10;;;7.45;;
51090;SDS011;37136;43.614;3.908;2023-01-28T11:42:50;16.92;;;6.57;;
51090;SDS011;37136;43.614;3.908;2023-01-28T11:45:17;11.52;;;7.70;;
51090;SDS011;37136;43.614;3.908;2023-01-28T11:58:05;10.70;;;6.68;;
51090;SDS011;37136;43.614;3.908;2023-01-28T12:03:19;8.40;;;5.78;;
51090;SDS011;37136;43.614;3.908;2023-01-28T12:05:52;5.80;;;4.75;;
51090;SDS011;37136;43.614;3.908;2023-01-28T12:16:30;9.00;;;5.45;;
51090;SDS011;37136;43.614;3.908;2023-01-28T12:31:37;51.92;;;8.23;;
51090;SDS011;37136;43.614;3.908;2023-01-28T12:39:31;8.30;;;5.03;;
51090;SDS011;37136;43.614;3.908;2023-01-28T12:42:06;6.95;;;5.57;;
51090;SDS011;37136;43.614;3.908;2023-01-28T12:44:36;6.72;;;4.85;;
51090;SDS011;37136;43.614;3.908;2023-01-28T12:47:05;10.98;;;4.90;;
51090;SDS011;37136;43.614;3.908;2023-01-28T12:54:33;11.10;;;5.90;;
51090;SDS011;37136;43.614;3.908;2023-01-28T12:57:00;8.95;;;5.95;;
51090;SDS011;37136;43.614;3.908;2023-01-28T12:59:28;6.40;;;4.68;;
51090;SDS011;37136;43.614;3.908;2023-01-28T13:02:00;5.85;;;4.60;;
51090;SDS011;37136;43.614;3.908;2023-01-28T13:04:41;6.38;;;4.93;;
51090;SDS011;37136;43.614;3.908;2023-01-28T13:07:14;8.60;;;5.55;;
51090;SDS011;37136;43.614;3.908;2023-01-28T13:09:48;9.02;;;6.07;;
51090;SDS011;37136;43.614;3.908;2023-01-28T13:12:17;6.05;;;4.22;;
51090;SDS011;37136;43.614;3.908;2023-01-28T13:14:43;5.82;;;4.05;;
51090;SDS011;37136;43.614;3.908;2023-01-28T13:17:31;5.90;;;4.10;;
51090;SDS011;37136;43.614;3.908;2023-01-28T13:20:00;4.75;;;3.60;;
51090;SDS011;37136;43.614;3.908;2023-01-28T13:24:52;4.88;;;3.60;;
51090;SDS011;37136;43.614;3.908;2023-01-28T13:27:30;4.57;;;3.70;;
51090;SDS011;37136;43.614;3.908;2023-01-28T13:30:01;8.27;;;3.15;;
51090;SDS011;37136;43.614;3.908;2023-01-28T13:32:32;4.13;;;3.00;;
51090;SDS011;37136;43.614;3.908;2023-01-28T13:35:23;4.93;;;3.38;;
51090;SDS011;37136;43.614;3.908;2023-01-28T13:37:45;4.05;;;3.38;;
51090;SDS011;37136;43.614;3.908;2023-01-28T13:42:38;4.30;;;3.70;;
51090;SDS011;37136;43.614;3.908;2023-01-28T13:45:23;3.90;;;3.13;;
51090;SDS011;37136;43.614;3.908;2023-01-28T13:47:51;4.55;;;3.42;;
51090;SDS011;37136;43.614;3.908;2023-01-28T13:50:19;3.80;;;3.17;;
51090;SDS011;37136;43.614;3.908;2023-01-28T13:55:33;4.72;;;3.92;;
51090;SDS011;37136;43.614;3.908;2023-01-28T14:13:39;6.88;;;4.65;;
51090;SDS011;37136;43.614;3.908;2023-01-28T14:16:18;6.07;;;4.38;;
51090;SDS011;37136;43.614;3.908;2023-01-28T14:18:46;5.25;;;4.18;;
51090;SDS011;37136;43.614;3.908;2023-01-28T14:21:15;8.57;;;4.00;;
51090;SDS011;37136;43.614;3.908;2023-01-28T14:23:46;4.20;;;3.20;;
51090;SDS011;37136;43.614;3.908;2023-01-28T14:26:15;4.65;;;3.45;;
51090;SDS011;37136;43.614;3.908;2023-01-28T14:28:49;4.63;;;3.55;;
51090;SDS011;37136;43.614;3.908;2023-01-28T14:33:45;6.80;;;4.63;;
51090;SDS011;37136;43.614;3.908;2023-01-28T14:36:11;6.25;;;4.10;;
51090;SDS011;37136;43.614;3.908;2023-01-28T14:38:39;7.68;;;4.35;;
51090;SDS011;37136;43.614;3.908;2023-01-28T14:41:06;5.00;;;3.90;;
51090;SDS011;37136;43.614;3.908;2023-01-28T14:43:32;5.10;;;3.30;;
51090;SDS011;37136;43.614;3.908;2023-01-28T14:58:40;5.05;;;3.83;;
51090;SDS011;37136;43.614;3.908;2023-01-28T15:03:53;3.92;;;2.63;;
51090;SDS011;37136;43.614;3.908;2023-01-28T15:06:21;5.80;;;4.43;;
51090;SDS011;37136;43.614;3.908;2023-01-28T15:08:51;6.10;;;4.68;;
51090;SDS011;37136;43.614;3.908;2023-01-28T15:11:22;6.93;;;4.20;;
51090;SDS011;37136;43.614;3.908;2023-01-28T15:13:51;6.25;;;4.63;;
51090;SDS011;37136;43.614;3.908;2023-01-28T15:16:20;6.70;;;4.88;;
51090;SDS011;37136;43.614;3.908;2023-01-28T15:18:47;6.15;;;4.15;;
51090;SDS011;37136;43.614;3.908;2023-01-28T15:21:18;5.88;;;4.43;;
51090;SDS011;37136;43.614;3.908;2023-01-28T15:23:46;5.90;;;3.90;;
51090;SDS011;37136;43.614;3.908;2023-01-28T15:26:26;6.93;;;4.95;;
51090;SDS011;37136;43.614;3.908;2023-01-28T15:28:53;5.78;;;4.05;;
51090;SDS011;37136;43.614;3.908;2023-01-28T15:33:54;8.70;;;5.00;;
51090;SDS011;37136;43.614;3.908;2023-01-28T15:36:21;4.68;;;3.60;;
51090;SDS011;37136;43.614;3.908;2023-01-28T15:38:47;6.57;;;4.47;;
51090;SDS011;37136;43.614;3.908;2023-01-28T15:41:13;5.35;;;4.30;;
51090;SDS011;37136;43.614;3.908;2023-01-28T15:43:44;5.93;;;4.47;;
51090;SDS011;37136;43.614;3.908;2023-01-28T15:46:11;4.30;;;3.83;;
51090;SDS011;37136;43.614;3.908;2023-01-28T15:48:39;5.47;;;4.28;;
51090;SDS011;37136;43.614;3.908;2023-01-28T15:51:16;5.50;;;4.20;;
51090;SDS011;37136;43.614;3.908;2023-01-28T15:53:44;4.07;;;3.67;;
51090;SDS011;37136;43.614;3.908;2023-01-28T15:56:11;5.38;;;4.40;;
51090;SDS011;37136;43.614;3.908;2023-01-28T15:58:38;6.13;;;4.07;;
51090;SDS011;37136;43.614;3.908;2023-01-28T16:03:38;6.25;;;4.38;;
51090;SDS011;37136;43.614;3.908;2023-01-28T16:06:05;5.43;;;4.20;;
51090;SDS011;37136;43.614;3.908;2023-01-28T16:08:33;6.43;;;3.40;;
51090;SDS011;37136;43.614;3.908;2023-01-28T16:11:01;5.47;;;4.20;;
51090;SDS011;37136;43.614;3.908;2023-01-28T16:13:29;6.05;;;4.45;;
51090;SDS011;37136;43.614;3.908;2023-01-28T16:18:28;5.88;;;4.20;;
51090;SDS011;37136;43.614;3.908;2023-01-28T16:20:55;6.13;;;4.75;;
51090;SDS011;37136;43.614;3.908;2023-01-28T16:23:22;5.20;;;4.28;;
51090;SDS011;37136;43.614;3.908;2023-01-28T16:28:34;6.38;;;4.72;;
51090;SDS011;37136;43.614;3.908;2023-01-28T16:31:00;6.97;;;4.60;;
51090;SDS011;37136;43.614;3.908;2023-01-28T16:33:26;8.50;;;5.00;;
51090;SDS011;37136;43.614;3.908;2023-01-28T16:35:52;8.45;;;5.13;;
51090;SDS011;37136;43.614;3.908;2023-01-28T16:38:19;7.07;;;5.13;;
51090;SDS011;37136;43.614;3.908;2023-01-28T16:40:45;9.63;;;5.22;;
51090;SDS011;37136;43.614;3.908;2023-01-28T16:43:12;10.10;;;5.65;;
51090;SDS011;37136;43.614;3.908;2023-01-28T16:45:40;8.63;;;5.88;;
51090;SDS011;37136;43.614;3.908;2023-01-28T16:48:06;9.25;;;6.32;;
51090;SDS011;37136;43.614;3.908;2023-01-28T16:50:32;8.68;;;6.07;;
51090;SDS011;37136;43.614;3.908;2023-01-28T16:52:59;9.00;;;5.97;;
51090;SDS011;37136;43.614;3.908;2023-01-28T16:55:26;11.27;;;6.10;;
51090;SDS011;37136;43.614;3.908;2023-01-28T16:57:52;8.50;;;6.10;;
51090;SDS011;37136;43.614;3.908;2023-01-28T17:00:23;8.52;;;6.47;;
51090;SDS011;37136;43.614;3.908;2023-01-28T17:02:49;9.57;;;6.68;;
51090;SDS011;37136;43.614;3.908;2023-01-28T17:05:16;11.90;;;6.72;;
51090;SDS011;37136;43.614;3.908;2023-01-28T17:07:44;11.13;;;7.28;;
51090;SDS011;37136;43.614;3.908;2023-01-28T17:10:12;11.95;;;7.82;;
51090;SDS011;37136;43.614;3.908;2023-01-28T17:12:38;8.85;;;6.30;;
51090;SDS011;37136;43.614;3.908;2023-01-28T17:15:05;10.35;;;6.57;;
51090;SDS011;37136;43.614;3.908;2023-01-28T17:17:31;10.98;;;7.00;;